sensor_id;sensor_type;location;lat;lon;timestamp;temperature;humidity
12089;DHT22;6107;49.078;8.578;2022-11-15T00:00:21;7.90;99.90
12089;DHT22;6107;49.078;8.578;2022-11-15T00:02:49;8.00;99.90
12089;DHT22;6107;49.078;8.578;2022-11-15T00:05:15;8.10;99.90
12089;DHT22;6107;49.078;8.578;2022-11-15T00:07:40;8.20;99.90
12089;DHT22;6107;49.078;8.578;2022-11-15T00:10:06;8.20;99.90
12089;DHT22;6107;49.078;8.578;2022-11-15T00:12:32;8.20;99.90
12089;DHT22;6107;49.078;8.578;2022-11-15T00:14:57;8.10;99.90
12089;DHT22;6107;49.078;8.578;2022-11-15T00:17:23;8.00;99.90
12089;DHT22;6107;49.078;8.578;2022-11-15T00:19:48;8.00;99.90
12089;DHT22;6107;49.078;8.578;2022-11-15T00:22:14;8.10;99.90
12089;DHT22;6107;49.078;8.578;2022-11-15T00:24:40;8.20;99.90
12089;DHT22;6107;49.078;8.578;2022-11-15T00:27:05;8.20;99.90
12089;DHT22;6107;49.078;8.578;2022-11-15T00:29:31;8.20;99.90
12089;DHT22;6107;49.078;8.578;2022-11-15T00:31:57;8.20;99.90
12089;DHT22;6107;49.078;8.578;2022-11-15T00:34:22;8.20;99.90
12089;DHT22;6107;49.078;8.578;2022-11-15T00:36:48;8.30;99.90
12089;DHT22;6107;49.078;8.578;2022-11-15T00:39:13;8.30;99.90
12089;DHT22;6107;49.078;8.578;2022-11-15T00:41:39;8.20;99.90
12089;DHT22;6107;49.078;8.578;2022-11-15T00:44:04;8.20;99.90
12089;DHT22;6107;49.078;8.578;2022-11-15T00:46:30;8.10;99.90
12089;DHT22;6107;49.078;8.578;2022-11-15T00:48:55;8.10;99.90
12089;DHT22;6107;49.078;8.578;2022-11-15T00:51:21;8.10;99.90
12089;DHT22;6107;49.078;8.578;2022-11-15T00:53:46;8.20;99.90
12089;DHT22;6107;49.078;8.578;2022-11-15T00:56:12;8.20;99.90
12089;DHT22;6107;49.078;8.578;2022-11-15T00:58:37;8.30;99.90
12089;DHT22;6107;49.078;8.578;2022-11-15T01:01:11;8.10;99.90
12089;DHT22;6107;49.078;8.578;2022-11-15T01:03:38;8.00;99.90
12089;DHT22;6107;49.078;8.578;2022-11-15T01:06:04;8.10;99.90
12089;DHT22;6107;49.078;8.578;2022-11-15T01:08:30;8.20;99.90
12089;DHT22;6107;49.078;8.578;2022-11-15T01:11:04;8.20;99.90
12089;DHT22;6107;49.078;8.578;2022-11-15T01:13:32;8.00;99.90
12089;DHT22;6107;49.078;8.578;2022-11-15T01:15:59;8.00;99.90
12089;DHT22;6107;49.078;8.578;2022-11-15T01:18:25;8.10;99.90
12089;DHT22;6107;49.078;8.578;2022-11-15T01:20:50;8.20;99.90
12089;DHT22;6107;49.078;8.578;2022-11-15T01:23:16;7.90;99.90
12089;DHT22;6107;49.078;8.578;2022-11-15T01:25:41;7.90;99.90
12089;DHT22;6107;49.078;8.578;2022-11-15T01:28:07;7.90;99.90
12089;DHT22;6107;49.078;8.578;2022-11-15T01:30:33;7.90;99.90
12089;DHT22;6107;49.078;8.578;2022-11-15T01:32:58;7.90;99.90
12089;DHT22;6107;49.078;8.578;2022-11-15T01:35:24;7.90;99.90
12089;DHT22;6107;49.078;8.578;2022-11-15T01:37:49;8.00;99.90
12089;DHT22;6107;49.078;8.578;2022-11-15T01:40:15;8.10;99.90
12089;DHT22;6107;49.078;8.578;2022-11-15T01:42:43;8.10;99.90
12089;DHT22;6107;49.078;8.578;2022-11-15T01:45:14;8.10;99.90
12089;DHT22;6107;49.078;8.578;2022-11-15T01:47:43;8.10;99.90
12089;DHT22;6107;49.078;8.578;2022-11-15T01:50:13;8.10;99.90
12089;DHT22;6107;49.078;8.578;2022-11-15T01:52:41;8.10;99.90
12089;DHT22;6107;49.078;8.578;2022-11-15T01:55:21;7.80;99.90
12089;DHT22;6107;49.078;8.578;2022-11-15T01:57:51;7.90;99.90
12089;DHT22;6107;49.078;8.578;2022-11-15T02:00:17;8.00;99.90
12089;DHT22;6107;49.078;8.578;2022-11-15T02:02:43;8.10;99.90
12089;DHT22;6107;49.078;8.578;2022-11-15T02:05:09;8.20;99.90
12089;DHT22;6107;49.078;8.578;2022-11-15T02:07:35;8.20;99.90
12089;DHT22;6107;49.078;8.578;2022-11-15T02:10:08;8.30;99.90
12089;DHT22;6107;49.078;8.578;2022-11-15T02:12:34;8.20;99.90
12089;DHT22;6107;49.078;8.578;2022-11-15T02:15:01;8.20;99.90
12089;DHT22;6107;49.078;8.578;2022-11-15T02:22:37;8.30;99.90
12089;DHT22;6107;49.078;8.578;2022-11-15T02:33:53;8.40;99.90
12089;DHT22;6107;49.078;8.578;2022-11-15T02:36:41;8.50;99.90
12089;DHT22;6107;49.078;8.578;2022-11-15T02:42:04;8.50;99.90
12089;DHT22;6107;49.078;8.578;2022-11-15T02:44:54;8.50;99.90
12089;DHT22;6107;49.078;8.578;2022-11-15T02:47:22;8.50;99.90
12089;DHT22;6107;49.078;8.578;2022-11-15T02:49:52;8.50;99.90
12089;DHT22;6107;49.078;8.578;2022-11-15T02:52:21;8.40;99.90
12089;DHT22;6107;49.078;8.578;2022-11-15T02:54:58;8.20;99.90
12089;DHT22;6107;49.078;8.578;2022-11-15T02:57:45;8.10;99.90
12089;DHT22;6107;49.078;8.578;2022-11-15T03:00:18;8.20;99.90
12089;DHT22;6107;49.078;8.578;2022-11-15T03:08:46;8.30;99.90
12089;DHT22;6107;49.078;8.578;2022-11-15T03:11:19;8.40;99.90
12089;DHT22;6107;49.078;8.578;2022-11-15T03:16:41;8.40;99.90
12089;DHT22;6107;49.078;8.578;2022-11-15T03:19:32;8.40;99.90
12089;DHT22;6107;49.078;8.578;2022-11-15T03:22:00;8.50;99.90
12089;DHT22;6107;49.078;8.578;2022-11-15T03:24:29;8.60;99.90
12089;DHT22;6107;49.078;8.578;2022-11-15T03:26:59;8.60;99.90
12089;DHT22;6107;49.078;8.578;2022-11-15T03:29:30;8.60;99.90
12089;DHT22;6107;49.078;8.578;2022-11-15T03:32:12;8.60;99.90
12089;DHT22;6107;49.078;8.578;2022-11-15T03:38:05;8.80;99.90
12089;DHT22;6107;49.078;8.578;2022-11-15T03:41:04;8.70;99.90
12089;DHT22;6107;49.078;8.578;2022-11-15T03:43:50;8.80;99.90
12089;DHT22;6107;49.078;8.578;2022-11-15T03:46:28;8.80;99.90
12089;DHT22;6107;49.078;8.578;2022-11-15T03:49:09;8.90;99.90
12089;DHT22;6107;49.078;8.578;2022-11-15T03:51:35;8.90;99.90
12089;DHT22;6107;49.078;8.578;2022-11-15T03:54:03;8.90;99.90
12089;DHT22;6107;49.078;8.578;2022-11-15T03:56:29;8.90;99.90
12089;DHT22;6107;49.078;8.578;2022-11-15T03:58:55;9.00;99.90
12089;DHT22;6107;49.078;8.578;2022-11-15T04:01:20;9.00;99.90
12089;DHT22;6107;49.078;8.578;2022-11-15T04:03:46;9.00;99.90
12089;DHT22;6107;49.078;8.578;2022-11-15T04:06:11;9.00;99.90
12089;DHT22;6107;49.078;8.578;2022-11-15T04:08:37;9.10;99.90
12089;DHT22;6107;49.078;8.578;2022-11-15T04:11:02;9.10;99.90
12089;DHT22;6107;49.078;8.578;2022-11-15T04:13:28;9.00;99.90
12089;DHT22;6107;49.078;8.578;2022-11-15T04:15:53;9.10;99.90
12089;DHT22;6107;49.078;8.578;2022-11-15T04:18:19;9.10;99.90
12089;DHT22;6107;49.078;8.578;2022-11-15T04:20:44;9.00;99.90
12089;DHT22;6107;49.078;8.578;2022-11-15T04:23:28;9.10;99.90
12089;DHT22;6107;49.078;8.578;2022-11-15T04:26:15;9.10;99.90
12089;DHT22;6107;49.078;8.578;2022-11-15T04:28:42;9.10;99.90
12089;DHT22;6107;49.078;8.578;2022-11-15T04:31:26;9.10;99.90
12089;DHT22;6107;49.078;8.578;2022-11-15T04:33:52;9.20;99.90
12089;DHT22;6107;49.078;8.578;2022-11-15T04:36:18;9.20;99.90
12089;DHT22;6107;49.078;8.578;2022-11-15T04:39:03;9.20;99.90
12089;DHT22;6107;49.078;8.578;2022-11-15T04:41:28;9.20;99.90
12089;DHT22;6107;49.078;8.578;2022-11-15T04:43:54;9.20;99.90
12089;DHT22;6107;49.078;8.578;2022-11-15T04:46:20;9.20;99.90
12089;DHT22;6107;49.078;8.578;2022-11-15T04:48:46;9.20;99.90
12089;DHT22;6107;49.078;8.578;2022-11-15T04:51:12;9.20;99.90
12089;DHT22;6107;49.078;8.578;2022-11-15T04:53:37;9.20;99.90
12089;DHT22;6107;49.078;8.578;2022-11-15T04:56:03;9.20;99.90
12089;DHT22;6107;49.078;8.578;2022-11-15T04:58:29;9.30;99.90
12089;DHT22;6107;49.078;8.578;2022-11-15T05:00:54;9.20;99.90
12089;DHT22;6107;49.078;8.578;2022-11-15T05:03:20;9.20;99.90
12089;DHT22;6107;49.078;8.578;2022-11-15T05:06:05;9.10;99.90
12089;DHT22;6107;49.078;8.578;2022-11-15T05:08:31;9.10;99.90
12089;DHT22;6107;49.078;8.578;2022-11-15T05:10:56;9.10;99.90
12089;DHT22;6107;49.078;8.578;2022-11-15T05:13:22;9.00;99.90
12089;DHT22;6107;49.078;8.578;2022-11-15T05:15:47;9.10;99.90
12089;DHT22;6107;49.078;8.578;2022-11-15T05:18:13;9.10;99.90
12089;DHT22;6107;49.078;8.578;2022-11-15T05:20:38;9.10;99.90
12089;DHT22;6107;49.078;8.578;2022-11-15T05:23:04;9.10;99.90
12089;DHT22;6107;49.078;8.578;2022-11-15T05:25:30;9.10;99.90
12089;DHT22;6107;49.078;8.578;2022-11-15T05:27:55;8.90;99.90
12089;DHT22;6107;49.078;8.578;2022-11-15T05:30:21;8.80;99.90
12089;DHT22;6107;49.078;8.578;2022-11-15T05:32:47;9.00;99.90
12089;DHT22;6107;49.078;8.578;2022-11-15T05:35:24;8.80;99.90
12089;DHT22;6107;49.078;8.578;2022-11-15T05:37:52;9.00;99.90
12089;DHT22;6107;49.078;8.578;2022-11-15T05:40:18;8.90;99.90
12089;DHT22;6107;49.078;8.578;2022-11-15T05:42:44;9.00;99.90
12089;DHT22;6107;49.078;8.578;2022-11-15T05:45:11;8.90;99.90
12089;DHT22;6107;49.078;8.578;2022-11-15T05:47:37;8.80;99.90
12089;DHT22;6107;49.078;8.578;2022-11-15T05:50:05;8.60;99.90
12089;DHT22;6107;49.078;8.578;2022-11-15T05:52:34;8.70;99.90
12089;DHT22;6107;49.078;8.578;2022-11-15T05:55:01;8.80;99.90
12089;DHT22;6107;49.078;8.578;2022-11-15T05:57:28;8.80;99.90
12089;DHT22;6107;49.078;8.578;2022-11-15T05:59:54;8.70;99.90
12089;DHT22;6107;49.078;8.578;2022-11-15T06:02:19;8.80;99.90
12089;DHT22;6107;49.078;8.578;2022-11-15T06:04:45;8.80;99.90
12089;DHT22;6107;49.078;8.578;2022-11-15T06:07:10;8.70;99.90
12089;DHT22;6107;49.078;8.578;2022-11-15T06:09:36;8.60;99.90
12089;DHT22;6107;49.078;8.578;2022-11-15T06:12:01;8.50;99.90
12089;DHT22;6107;49.078;8.578;2022-11-15T06:14:27;8.40;99.90
12089;DHT22;6107;49.078;8.578;2022-11-15T06:16:52;8.40;99.90
12089;DHT22;6107;49.078;8.578;2022-11-15T06:19:18;8.50;99.90
12089;DHT22;6107;49.078;8.578;2022-11-15T06:21:43;8.50;99.90
12089;DHT22;6107;49.078;8.578;2022-11-15T06:24:09;8.50;99.90
12089;DHT22;6107;49.078;8.578;2022-11-15T06:26:34;8.40;99.90
12089;DHT22;6107;49.078;8.578;2022-11-15T06:29:02;8.30;99.90
12089;DHT22;6107;49.078;8.578;2022-11-15T06:31:28;8.40;99.90
12089;DHT22;6107;49.078;8.578;2022-11-15T06:33:54;8.60;99.90
12089;DHT22;6107;49.078;8.578;2022-11-15T06:36:19;8.60;99.90
12089;DHT22;6107;49.078;8.578;2022-11-15T06:38:46;8.60;99.90
12089;DHT22;6107;49.078;8.578;2022-11-15T06:41:12;8.50;99.90
12089;DHT22;6107;49.078;8.578;2022-11-15T06:43:39;8.70;99.90
12089;DHT22;6107;49.078;8.578;2022-11-15T06:46:06;8.80;99.90
12089;DHT22;6107;49.078;8.578;2022-11-15T06:48:33;8.70;99.90
12089;DHT22;6107;49.078;8.578;2022-11-15T06:51:00;8.70;99.90
12089;DHT22;6107;49.078;8.578;2022-11-15T06:53:27;8.80;99.90
12089;DHT22;6107;49.078;8.578;2022-11-15T06:55:53;8.70;99.90
12089;DHT22;6107;49.078;8.578;2022-11-15T06:58:20;8.80;99.90
12089;DHT22;6107;49.078;8.578;2022-11-15T07:00:46;8.90;99.90
12089;DHT22;6107;49.078;8.578;2022-11-15T07:03:11;9.00;99.90
12089;DHT22;6107;49.078;8.578;2022-11-15T07:05:37;9.00;99.90
12089;DHT22;6107;49.078;8.578;2022-11-15T07:08:03;9.10;99.90
12089;DHT22;6107;49.078;8.578;2022-11-15T07:10:29;9.00;99.90
12089;DHT22;6107;49.078;8.578;2022-11-15T07:12:55;9.10;99.90
12089;DHT22;6107;49.078;8.578;2022-11-15T07:15:23;9.10;99.90
12089;DHT22;6107;49.078;8.578;2022-11-15T07:17:49;9.10;99.90
12089;DHT22;6107;49.078;8.578;2022-11-15T07:20:15;9.30;99.90
12089;DHT22;6107;49.078;8.578;2022-11-15T07:22:41;9.20;99.90
12089;DHT22;6107;49.078;8.578;2022-11-15T07:25:08;9.20;99.90
12089;DHT22;6107;49.078;8.578;2022-11-15T07:27:34;9.30;99.90
12089;DHT22;6107;49.078;8.578;2022-11-15T07:30:00;9.30;99.90
12089;DHT22;6107;49.078;8.578;2022-11-15T07:32:26;9.30;99.90
12089;DHT22;6107;49.078;8.578;2022-11-15T07:34:52;9.30;99.90
12089;DHT22;6107;49.078;8.578;2022-11-15T07:37:17;9.40;99.90
12089;DHT22;6107;49.078;8.578;2022-11-15T07:39:43;9.50;99.90
12089;DHT22;6107;49.078;8.578;2022-11-15T07:42:09;9.50;99.90
12089;DHT22;6107;49.078;8.578;2022-11-15T07:44:53;9.60;99.90
12089;DHT22;6107;49.078;8.578;2022-11-15T07:47:19;9.50;99.90
12089;DHT22;6107;49.078;8.578;2022-11-15T07:49:46;9.40;99.90
12089;DHT22;6107;49.078;8.578;2022-11-15T07:52:12;9.40;99.90
12089;DHT22;6107;49.078;8.578;2022-11-15T07:54:37;9.30;99.90
12089;DHT22;6107;49.078;8.578;2022-11-15T07:57:04;9.50;99.90
12089;DHT22;6107;49.078;8.578;2022-11-15T07:59:30;9.50;99.90
12089;DHT22;6107;49.078;8.578;2022-11-15T08:01:55;9.60;99.90
12089;DHT22;6107;49.078;8.578;2022-11-15T08:04:21;9.60;99.90
12089;DHT22;6107;49.078;8.578;2022-11-15T08:06:46;9.70;99.90
12089;DHT22;6107;49.078;8.578;2022-11-15T08:09:12;9.80;99.90
12089;DHT22;6107;49.078;8.578;2022-11-15T08:11:37;9.80;99.90
12089;DHT22;6107;49.078;8.578;2022-11-15T08:14:03;9.80;99.90
12089;DHT22;6107;49.078;8.578;2022-11-15T08:16:29;9.80;99.90
12089;DHT22;6107;49.078;8.578;2022-11-15T08:18:54;10.00;99.90
12089;DHT22;6107;49.078;8.578;2022-11-15T08:21:20;10.00;99.90
12089;DHT22;6107;49.078;8.578;2022-11-15T08:23:46;10.10;99.90
12089;DHT22;6107;49.078;8.578;2022-11-15T08:26:12;10.10;99.90
12089;DHT22;6107;49.078;8.578;2022-11-15T08:28:38;10.20;99.90
12089;DHT22;6107;49.078;8.578;2022-11-15T08:31:04;10.30;99.90
12089;DHT22;6107;49.078;8.578;2022-11-15T08:33:30;10.30;99.90
12089;DHT22;6107;49.078;8.578;2022-11-15T08:35:57;10.30;99.90
12089;DHT22;6107;49.078;8.578;2022-11-15T08:38:23;10.30;99.90
12089;DHT22;6107;49.078;8.578;2022-11-15T08:40:50;10.30;99.90
12089;DHT22;6107;49.078;8.578;2022-11-15T08:43:16;10.40;99.90
12089;DHT22;6107;49.078;8.578;2022-11-15T08:45:41;10.50;99.90
12089;DHT22;6107;49.078;8.578;2022-11-15T08:48:07;10.50;99.90
12089;DHT22;6107;49.078;8.578;2022-11-15T08:50:32;10.70;99.90
12089;DHT22;6107;49.078;8.578;2022-11-15T08:53:04;10.40;99.90
12089;DHT22;6107;49.078;8.578;2022-11-15T08:55:30;11.00;99.90
12089;DHT22;6107;49.078;8.578;2022-11-15T08:57:57;10.90;99.90
12089;DHT22;6107;49.078;8.578;2022-11-15T09:00:23;10.90;99.90
12089;DHT22;6107;49.078;8.578;2022-11-15T09:02:49;10.80;99.90
12089;DHT22;6107;49.078;8.578;2022-11-15T09:05:14;10.90;99.90
12089;DHT22;6107;49.078;8.578;2022-11-15T09:07:43;11.00;99.90
12089;DHT22;6107;49.078;8.578;2022-11-15T09:10:09;11.30;99.90
12089;DHT22;6107;49.078;8.578;2022-11-15T09:12:35;11.50;99.90
12089;DHT22;6107;49.078;8.578;2022-11-15T09:15:00;11.50;99.90
12089;DHT22;6107;49.078;8.578;2022-11-15T09:17:26;11.40;99.90
12089;DHT22;6107;49.078;8.578;2022-11-15T09:19:51;11.80;99.90
12089;DHT22;6107;49.078;8.578;2022-11-15T09:22:17;11.30;99.90
12089;DHT22;6107;49.078;8.578;2022-11-15T09:24:43;11.30;99.90
12089;DHT22;6107;49.078;8.578;2022-11-15T09:27:08;11.20;99.90
12089;DHT22;6107;49.078;8.578;2022-11-15T09:29:34;11.30;99.90
12089;DHT22;6107;49.078;8.578;2022-11-15T09:31:59;11.40;99.90
12089;DHT22;6107;49.078;8.578;2022-11-15T09:34:25;11.40;99.90
12089;DHT22;6107;49.078;8.578;2022-11-15T09:36:51;11.50;99.90
12089;DHT22;6107;49.078;8.578;2022-11-15T09:39:16;11.50;99.90
12089;DHT22;6107;49.078;8.578;2022-11-15T09:50:10;11.70;99.90
12089;DHT22;6107;49.078;8.578;2022-11-15T09:52:37;11.70;99.90
12089;DHT22;6107;49.078;8.578;2022-11-15T09:55:05;12.00;99.90
12089;DHT22;6107;49.078;8.578;2022-11-15T09:57:49;11.90;99.90
12089;DHT22;6107;49.078;8.578;2022-11-15T10:00:31;12.20;99.90
12089;DHT22;6107;49.078;8.578;2022-11-15T10:05:47;12.20;99.90
12089;DHT22;6107;49.078;8.578;2022-11-15T10:11:11;12.10;99.90
12089;DHT22;6107;49.078;8.578;2022-11-15T10:13:44;12.10;99.90
12089;DHT22;6107;49.078;8.578;2022-11-15T10:24:25;12.00;99.90
12089;DHT22;6107;49.078;8.578;2022-11-15T10:26:51;12.00;99.90
12089;DHT22;6107;49.078;8.578;2022-11-15T10:29:20;11.90;99.90
12089;DHT22;6107;49.078;8.578;2022-11-15T10:31:47;11.90;99.90
12089;DHT22;6107;49.078;8.578;2022-11-15T10:34:15;11.90;99.90
12089;DHT22;6107;49.078;8.578;2022-11-15T10:37:01;11.80;99.90
12089;DHT22;6107;49.078;8.578;2022-11-15T10:39:30;12.00;99.90
12089;DHT22;6107;49.078;8.578;2022-11-15T10:41:55;11.90;99.90
12089;DHT22;6107;49.078;8.578;2022-11-15T10:44:28;12.20;99.90
12089;DHT22;6107;49.078;8.578;2022-11-15T10:49:23;12.30;99.90
12089;DHT22;6107;49.078;8.578;2022-11-15T10:51:59;12.20;99.90
12089;DHT22;6107;49.078;8.578;2022-11-15T10:54:35;12.40;99.90
12089;DHT22;6107;49.078;8.578;2022-11-15T10:57:07;12.50;99.90
12089;DHT22;6107;49.078;8.578;2022-11-15T10:59:36;12.30;99.90
12089;DHT22;6107;49.078;8.578;2022-11-15T11:02:02;12.60;99.90
12089;DHT22;6107;49.078;8.578;2022-11-15T11:04:51;12.60;99.90
12089;DHT22;6107;49.078;8.578;2022-11-15T11:07:23;12.60;99.90
12089;DHT22;6107;49.078;8.578;2022-11-15T11:09:58;12.70;99.90
12089;DHT22;6107;49.078;8.578;2022-11-15T11:12:29;12.70;99.90
12089;DHT22;6107;49.078;8.578;2022-11-15T11:14:55;12.70;99.90
12089;DHT22;6107;49.078;8.578;2022-11-15T11:20:26;12.80;99.90
12089;DHT22;6107;49.078;8.578;2022-11-15T11:23:23;12.80;99.90
12089;DHT22;6107;49.078;8.578;2022-11-15T11:32:01;13.40;99.90
12089;DHT22;6107;49.078;8.578;2022-11-15T11:43:07;13.40;99.90
12089;DHT22;6107;49.078;8.578;2022-11-15T11:48:12;13.20;99.90
12089;DHT22;6107;49.078;8.578;2022-11-15T11:50:38;13.10;99.90
12089;DHT22;6107;49.078;8.578;2022-11-15T11:53:37;13.00;99.90
12089;DHT22;6107;49.078;8.578;2022-11-15T11:56:33;13.10;99.90
12089;DHT22;6107;49.078;8.578;2022-11-15T11:59:19;13.40;99.90
12089;DHT22;6107;49.078;8.578;2022-11-15T12:01:46;13.10;99.90
12089;DHT22;6107;49.078;8.578;2022-11-15T12:04:14;13.00;99.90
12089;DHT22;6107;49.078;8.578;2022-11-15T12:06:51;13.30;99.90
12089;DHT22;6107;49.078;8.578;2022-11-15T12:09:41;13.00;99.90
12089;DHT22;6107;49.078;8.578;2022-11-15T12:15:04;13.10;99.90
12089;DHT22;6107;49.078;8.578;2022-11-15T12:17:31;13.10;99.90
12089;DHT22;6107;49.078;8.578;2022-11-15T12:20:05;13.00;99.90
12089;DHT22;6107;49.078;8.578;2022-11-15T12:23:13;13.00;99.90
12089;DHT22;6107;49.078;8.578;2022-11-15T12:26:08;13.00;99.90
12089;DHT22;6107;49.078;8.578;2022-11-15T12:33:43;13.20;99.90
12089;DHT22;6107;49.078;8.578;2022-11-15T12:41:20;13.20;99.90
12089;DHT22;6107;49.078;8.578;2022-11-15T12:43:48;13.20;99.90
12089;DHT22;6107;49.078;8.578;2022-11-15T13:02:42;14.80;99.90
12089;DHT22;6107;49.078;8.578;2022-11-15T13:12:57;14.60;99.90
12089;DHT22;6107;49.078;8.578;2022-11-15T13:16:00;14.50;99.90
12089;DHT22;6107;49.078;8.578;2022-11-15T13:20:52;14.60;99.90
12089;DHT22;6107;49.078;8.578;2022-11-15T13:23:18;14.80;99.90
12089;DHT22;6107;49.078;8.578;2022-11-15T13:33:45;15.40;99.90
12089;DHT22;6107;49.078;8.578;2022-11-15T13:36:20;15.50;99.90
12089;DHT22;6107;49.078;8.578;2022-11-15T13:41:22;15.30;99.90
12089;DHT22;6107;49.078;8.578;2022-11-15T13:43:50;15.40;99.90
12089;DHT22;6107;49.078;8.578;2022-11-15T13:46:27;15.30;99.90
12089;DHT22;6107;49.078;8.578;2022-11-15T13:49:09;15.00;99.90
12089;DHT22;6107;49.078;8.578;2022-11-15T13:51:44;15.00;99.90
12089;DHT22;6107;49.078;8.578;2022-11-15T13:56:37;15.10;99.90
12089;DHT22;6107;49.078;8.578;2022-11-15T13:59:17;15.20;99.90
12089;DHT22;6107;49.078;8.578;2022-11-15T14:01:44;15.00;99.90
12089;DHT22;6107;49.078;8.578;2022-11-15T14:04:13;14.80;99.90
12089;DHT22;6107;49.078;8.578;2022-11-15T14:06:48;14.70;99.90
12089;DHT22;6107;49.078;8.578;2022-11-15T14:09:18;14.80;99.90
12089;DHT22;6107;49.078;8.578;2022-11-15T14:11:54;14.80;99.90
12089;DHT22;6107;49.078;8.578;2022-11-15T14:14:25;14.80;99.90
12089;DHT22;6107;49.078;8.578;2022-11-15T14:16:56;14.80;99.90
12089;DHT22;6107;49.078;8.578;2022-11-15T14:22:13;14.80;99.90
12089;DHT22;6107;49.078;8.578;2022-11-15T14:24:40;14.70;99.90
12089;DHT22;6107;49.078;8.578;2022-11-15T14:29:44;14.60;99.90
12089;DHT22;6107;49.078;8.578;2022-11-15T14:32:22;14.70;99.90
12089;DHT22;6107;49.078;8.578;2022-11-15T14:34:58;14.60;99.90
12089;DHT22;6107;49.078;8.578;2022-11-15T14:39:52;14.50;99.90
12089;DHT22;6107;49.078;8.578;2022-11-15T14:42:19;14.40;99.90
12089;DHT22;6107;49.078;8.578;2022-11-15T14:44:45;14.50;99.90
12089;DHT22;6107;49.078;8.578;2022-11-15T14:47:11;14.30;99.90
12089;DHT22;6107;49.078;8.578;2022-11-15T14:49:36;14.30;99.90
12089;DHT22;6107;49.078;8.578;2022-11-15T14:52:02;14.20;99.90
12089;DHT22;6107;49.078;8.578;2022-11-15T14:54:30;14.20;99.90
12089;DHT22;6107;49.078;8.578;2022-11-15T14:56:55;14.20;99.90
12089;DHT22;6107;49.078;8.578;2022-11-15T14:59:21;13.90;99.90
12089;DHT22;6107;49.078;8.578;2022-11-15T15:01:46;14.10;99.90
12089;DHT22;6107;49.078;8.578;2022-11-15T15:04:12;14.10;99.90
12089;DHT22;6107;49.078;8.578;2022-11-15T15:06:38;14.30;99.90
12089;DHT22;6107;49.078;8.578;2022-11-15T15:09:03;14.20;99.90
12089;DHT22;6107;49.078;8.578;2022-11-15T15:11:31;14.30;99.90
12089;DHT22;6107;49.078;8.578;2022-11-15T15:13:57;14.30;99.90
12089;DHT22;6107;49.078;8.578;2022-11-15T15:16:25;14.30;99.90
12089;DHT22;6107;49.078;8.578;2022-11-15T15:18:51;14.20;99.90
12089;DHT22;6107;49.078;8.578;2022-11-15T15:21:22;14.00;99.90
12089;DHT22;6107;49.078;8.578;2022-11-15T15:23:49;14.00;99.90
12089;DHT22;6107;49.078;8.578;2022-11-15T15:26:15;14.00;99.90
12089;DHT22;6107;49.078;8.578;2022-11-15T15:28:40;14.00;99.90
12089;DHT22;6107;49.078;8.578;2022-11-15T15:31:06;13.90;99.90
12089;DHT22;6107;49.078;8.578;2022-11-15T15:33:32;13.80;99.90
12089;DHT22;6107;49.078;8.578;2022-11-15T15:35:58;13.80;99.90
12089;DHT22;6107;49.078;8.578;2022-11-15T15:38:24;13.80;99.90
12089;DHT22;6107;49.078;8.578;2022-11-15T15:40:50;13.80;99.90
12089;DHT22;6107;49.078;8.578;2022-11-15T15:43:15;13.80;99.90
12089;DHT22;6107;49.078;8.578;2022-11-15T15:45:41;13.80;99.90
12089;DHT22;6107;49.078;8.578;2022-11-15T15:48:16;13.80;99.90
12089;DHT22;6107;49.078;8.578;2022-11-15T15:50:42;13.70;99.90
12089;DHT22;6107;49.078;8.578;2022-11-15T15:53:10;13.80;99.90
12089;DHT22;6107;49.078;8.578;2022-11-15T15:55:36;13.70;99.90
12089;DHT22;6107;49.078;8.578;2022-11-15T15:58:03;13.60;99.90
12089;DHT22;6107;49.078;8.578;2022-11-15T16:00:28;13.60;99.90
12089;DHT22;6107;49.078;8.578;2022-11-15T16:02:54;13.60;99.90
12089;DHT22;6107;49.078;8.578;2022-11-15T16:05:21;13.60;99.90
12089;DHT22;6107;49.078;8.578;2022-11-15T16:07:47;13.50;99.90
12089;DHT22;6107;49.078;8.578;2022-11-15T16:10:24;13.50;99.90
12089;DHT22;6107;49.078;8.578;2022-11-15T16:12:50;13.40;99.90
12089;DHT22;6107;49.078;8.578;2022-11-15T16:15:17;13.30;99.90
12089;DHT22;6107;49.078;8.578;2022-11-15T16:17:51;13.10;99.90
12089;DHT22;6107;49.078;8.578;2022-11-15T16:23:09;13.20;99.90
12089;DHT22;6107;49.078;8.578;2022-11-15T16:25:49;13.20;99.90
12089;DHT22;6107;49.078;8.578;2022-11-15T16:30:45;13.00;99.90
12089;DHT22;6107;49.078;8.578;2022-11-15T16:33:11;13.00;99.90
12089;DHT22;6107;49.078;8.578;2022-11-15T16:35:36;13.10;99.90
12089;DHT22;6107;49.078;8.578;2022-11-15T16:38:02;13.10;99.90
12089;DHT22;6107;49.078;8.578;2022-11-15T16:40:29;13.10;99.90
12089;DHT22;6107;49.078;8.578;2022-11-15T16:42:56;13.10;99.90
12089;DHT22;6107;49.078;8.578;2022-11-15T16:45:22;13.20;99.90
12089;DHT22;6107;49.078;8.578;2022-11-15T16:47:48;13.20;99.90
12089;DHT22;6107;49.078;8.578;2022-11-15T16:50:20;13.10;99.90
12089;DHT22;6107;49.078;8.578;2022-11-15T16:52:49;13.00;99.90
12089;DHT22;6107;49.078;8.578;2022-11-15T16:55:15;13.10;99.90
12089;DHT22;6107;49.078;8.578;2022-11-15T16:57:40;13.10;99.90
12089;DHT22;6107;49.078;8.578;2022-11-15T17:00:08;13.10;99.90
12089;DHT22;6107;49.078;8.578;2022-11-15T17:02:34;13.10;99.90
12089;DHT22;6107;49.078;8.578;2022-11-15T17:05:00;12.90;99.90
12089;DHT22;6107;49.078;8.578;2022-11-15T17:07:25;12.90;99.90
12089;DHT22;6107;49.078;8.578;2022-11-15T17:09:51;12.90;99.90
12089;DHT22;6107;49.078;8.578;2022-11-15T17:12:16;13.00;99.90
12089;DHT22;6107;49.078;8.578;2022-11-15T17:14:42;13.00;99.90
12089;DHT22;6107;49.078;8.578;2022-11-15T17:17:10;12.90;99.90
12089;DHT22;6107;49.078;8.578;2022-11-15T17:19:35;12.90;99.90
12089;DHT22;6107;49.078;8.578;2022-11-15T17:22:01;13.00;99.90
12089;DHT22;6107;49.078;8.578;2022-11-15T17:24:26;12.90;99.90
12089;DHT22;6107;49.078;8.578;2022-11-15T17:26:52;12.90;99.90
12089;DHT22;6107;49.078;8.578;2022-11-15T17:29:17;12.90;99.90
12089;DHT22;6107;49.078;8.578;2022-11-15T17:31:43;12.90;99.90
12089;DHT22;6107;49.078;8.578;2022-11-15T17:34:09;12.90;99.90
12089;DHT22;6107;49.078;8.578;2022-11-15T17:36:34;12.90;99.90
12089;DHT22;6107;49.078;8.578;2022-11-15T17:39:00;12.90;99.90
12089;DHT22;6107;49.078;8.578;2022-11-15T17:41:27;12.80;99.90
12089;DHT22;6107;49.078;8.578;2022-11-15T17:43:55;12.90;99.90
12089;DHT22;6107;49.078;8.578;2022-11-15T17:46:22;12.80;99.90
12089;DHT22;6107;49.078;8.578;2022-11-15T17:48:48;12.80;99.90
12089;DHT22;6107;49.078;8.578;2022-11-15T17:51:15;12.80;99.90
12089;DHT22;6107;49.078;8.578;2022-11-15T17:53:45;12.80;99.90
12089;DHT22;6107;49.078;8.578;2022-11-15T17:56:15;12.60;99.90
12089;DHT22;6107;49.078;8.578;2022-11-15T17:58:45;12.60;99.90
12089;DHT22;6107;49.078;8.578;2022-11-15T18:03:50;12.60;99.90
12089;DHT22;6107;49.078;8.578;2022-11-15T18:06:17;12.60;99.90
12089;DHT22;6107;49.078;8.578;2022-11-15T18:08:45;12.60;99.90
12089;DHT22;6107;49.078;8.578;2022-11-15T18:13:38;12.40;99.90
12089;DHT22;6107;49.078;8.578;2022-11-15T18:16:05;12.50;99.90
12089;DHT22;6107;49.078;8.578;2022-11-15T18:18:33;12.50;99.90
12089;DHT22;6107;49.078;8.578;2022-11-15T18:21:07;12.60;99.90
12089;DHT22;6107;49.078;8.578;2022-11-15T18:23:33;12.60;99.90
12089;DHT22;6107;49.078;8.578;2022-11-15T18:26:00;12.50;99.90
12089;DHT22;6107;49.078;8.578;2022-11-15T18:28:33;12.50;99.90